Smock, PA (15480)

8:26 PM EDT on September 18, 2014 (GMT -0400)
Dunbar | Change Station
CLOSE
Current Station
Personal Weather Station
Location: Dunbar, PA
Elevation: 1056 ft
Nearby Weather Stations

Elev 1056 ft 40.00 °N, 79.69 °W | Updated 7 seconds ago

Clear
Clear
52.7 °F
Feels Like 52.7 °F
N
3.1
Wind Variable Wind from NE
Gusts 3.1 mph

Today
High -- | Low -- °F
--% Chance of Precip.
Yesterday
High -- | Low -- °F
Precip. -- in
7:02 AM 7:22 PM
Waning Crescent, 23% visible
Pressure 30.10 in
Visibility 10.0 miles
Clouds Clear
Dew Point 51 °F
Humidity 95%
Rainfall 0.00 in
Snow Depth Not available.
UV 0 out of 12
Pollen 3.80 out of 12
Air Quality Not available.
Flu Activity Not available.
METAR KMGW 182353Z 03005KT 10SM CLR 16/07 A3010 RMK AO2 SLP193 T01560067 10222 20156 51008

More Conditions Fewer Conditions

Pressure 30.10 in
Visibility 10.0 miles
Clouds Clear
Dew Point 51 °F
Humidity 95%
Rainfall 0.00 in
Snow Depth Not available.
UV 0 out of 12
Pollen 3.80 out of 12
Air Quality Not available.
Flu Activity Not available.
METAR KMGW 182353Z 03005KT 10SM CLR 16/07 A3010 RMK AO2 SLP193 T01560067 10222 20156 51008

More Conditions Fewer Conditions

10-Day Weather Forecast

Almanac

Astronomy

Sep. 18, 2014 Rise Set
Actual Time 7:02 AM EDT 7:22 PM EDT
Civil Twilight 6:35 AM EDT 7:49 PM EDT
Nautical Twilight 6:03 AM EDT 8:21 PM EDT
Astronomical Twilight 5:31 AM EDT 8:54 PM EDT
Moon 1:53 AM EDT (9/18) 4:12 PM EDT (9/18)
Length of Visible Light 13h 14m
Length of Day
12h 19m
Tomorrow will be 2m 35s shorter.
Waning Crescent, 23% of the Moon is Illuminated
Today
Waning Crescent
Sep 24
New
Oct 1
First Quarter
Oct 8
Full
Oct 15
Last Quarter

Today's Extremes

State Highs State Lows

Community

WunderPhotos

Upload Photos

1,754,501 photos uploaded!

WunderBlogs® & News

Nearby

Snow Depth

Station Depth Elevation
No new snow has been reported.

Earthquake Activity

City Distance Mag. Time & Date
No recent earthquake activity has been reported nearby.
Minimum magnitude displayed is 2.5.

Coastal Water Temperatures

Place Temperature
No Stations Reporting

Nearby Weather Stations